sensor_id;sensor_type;location;lat;lon;timestamp;pressure;altitude;pressure_sealevel;temperature;humidity
31483;BME280;18103;52.246;8.052;2023-03-31T00:01:43;99221.47;;;11.01;83.24
31483;BME280;18103;52.246;8.052;2023-03-31T00:04:09;99222.19;;;10.93;83.23
31483;BME280;18103;52.246;8.052;2023-03-31T00:06:38;99221.53;;;10.91;83.08
31483;BME280;18103;52.246;8.052;2023-03-31T00:09:09;99222.81;;;10.87;83.16
31483;BME280;18103;52.246;8.052;2023-03-31T00:11:35;99222.03;;;10.77;83.86
31483;BME280;18103;52.246;8.052;2023-03-31T00:14:02;99220.25;;;10.77;83.57
31483;BME280;18103;52.246;8.052;2023-03-31T00:16:28;99220.16;;;10.69;83.67
31483;BME280;18103;52.246;8.052;2023-03-31T00:18:53;99213.59;;;10.73;83.27
31483;BME280;18103;52.246;8.052;2023-03-31T00:21:21;99217.53;;;10.69;83.49
31483;BME280;18103;52.246;8.052;2023-03-31T00:23:56;99212.25;;;10.69;83.70
31483;BME280;18103;52.246;8.052;2023-03-31T00:26:22;99206.50;;;10.74;83.31
31483;BME280;18103;52.246;8.052;2023-03-31T00:28:48;99196.56;;;10.68;83.50
31483;BME280;18103;52.246;8.052;2023-03-31T00:31:19;99196.72;;;10.66;84.04
31483;BME280;18103;52.246;8.052;2023-03-31T00:33:46;99183.66;;;10.65;83.51
31483;BME280;18103;52.246;8.052;2023-03-31T00:36:14;99190.88;;;10.63;83.86
31483;BME280;18103;52.246;8.052;2023-03-31T00:38:47;99186.44;;;10.63;83.52
31483;BME280;18103;52.246;8.052;2023-03-31T00:41:13;99175.22;;;10.61;83.53
31483;BME280;18103;52.246;8.052;2023-03-31T00:46:45;99171.75;;;10.60;83.63
31483;BME280;18103;52.246;8.052;2023-03-31T00:51:54;99164.97;;;10.58;83.55
31483;BME280;18103;52.246;8.052;2023-03-31T00:54:23;99169.84;;;10.53;83.42
31483;BME280;18103;52.246;8.052;2023-03-31T00:56:54;99157.63;;;10.52;83.50
31483;BME280;18103;52.246;8.052;2023-03-31T00:59:26;99162.16;;;10.41;84.07
31483;BME280;18103;52.246;8.052;2023-03-31T01:01:57;99158.81;;;10.39;84.01
31483;BME280;18103;52.246;8.052;2023-03-31T01:04:31;99148.03;;;10.33;84.20
31483;BME280;18103;52.246;8.052;2023-03-31T01:07:12;99149.50;;;10.45;83.64
31483;BME280;18103;52.246;8.052;2023-03-31T01:09:44;99149.81;;;10.32;83.95
31483;BME280;18103;52.246;8.052;2023-03-31T01:12:15;99135.81;;;10.32;84.14
31483;BME280;18103;52.246;8.052;2023-03-31T01:14:45;99129.16;;;10.27;84.57
31483;BME280;18103;52.246;8.052;2023-03-31T01:17:12;99132.94;;;10.25;84.41
31483;BME280;18103;52.246;8.052;2023-03-31T01:45:34;99077.75;;;10.14;84.78
31483;BME280;18103;52.246;8.052;2023-03-31T01:55:44;99071.59;;;10.23;84.55
31483;BME280;18103;52.246;8.052;2023-03-31T01:58:20;99057.50;;;10.14;84.83
31483;BME280;18103;52.246;8.052;2023-03-31T02:00:58;99054.59;;;10.17;84.98
31483;BME280;18103;52.246;8.052;2023-03-31T02:03:30;99049.72;;;10.13;84.99
31483;BME280;18103;52.246;8.052;2023-03-31T02:06:02;99048.09;;;10.12;85.30
31483;BME280;18103;52.246;8.052;2023-03-31T02:08:39;99039.19;;;10.13;85.23
31483;BME280;18103;52.246;8.052;2023-03-31T02:11:07;99040.53;;;10.17;85.06
31483;BME280;18103;52.246;8.052;2023-03-31T02:13:39;99033.69;;;10.24;84.83
31483;BME280;18103;52.246;8.052;2023-03-31T02:16:12;99024.66;;;10.26;84.88
31483;BME280;18103;52.246;8.052;2023-03-31T02:18:45;99031.03;;;10.24;84.63
31483;BME280;18103;52.246;8.052;2023-03-31T02:21:13;99025.78;;;10.24;84.78
31483;BME280;18103;52.246;8.052;2023-03-31T02:23:39;99024.97;;;10.23;85.34
31483;BME280;18103;52.246;8.052;2023-03-31T02:26:19;99012.31;;;10.27;85.09
31483;BME280;18103;52.246;8.052;2023-03-31T02:28:54;99014.25;;;10.25;85.04
31483;BME280;18103;52.246;8.052;2023-03-31T02:34:08;98999.78;;;10.29;84.87
31483;BME280;18103;52.246;8.052;2023-03-31T02:36:34;99000.47;;;10.31;84.86
31483;BME280;18103;52.246;8.052;2023-03-31T02:39:14;98990.75;;;10.32;84.61
31483;BME280;18103;52.246;8.052;2023-03-31T02:41:43;98986.53;;;10.39;84.56
31483;BME280;18103;52.246;8.052;2023-03-31T02:44:14;98988.38;;;10.38;84.19
31483;BME280;18103;52.246;8.052;2023-03-31T02:46:43;98992.94;;;10.36;84.54
31483;BME280;18103;52.246;8.052;2023-03-31T02:49:09;98980.66;;;10.45;84.27
31483;BME280;18103;52.246;8.052;2023-03-31T02:54:39;98970.25;;;10.43;84.47
31483;BME280;18103;52.246;8.052;2023-03-31T03:00:07;98966.13;;;10.41;84.40
31483;BME280;18103;52.246;8.052;2023-03-31T03:13:11;98950.50;;;10.48;84.81
31483;BME280;18103;52.246;8.052;2023-03-31T03:15:50;98939.22;;;10.37;85.33
31483;BME280;18103;52.246;8.052;2023-03-31T03:18:18;98930.50;;;10.37;85.66
31483;BME280;18103;52.246;8.052;2023-03-31T03:20:43;98929.81;;;10.35;86.27
31483;BME280;18103;52.246;8.052;2023-03-31T03:23:15;98922.50;;;10.28;86.92
31483;BME280;18103;52.246;8.052;2023-03-31T03:25:40;98920.00;;;10.27;87.00
31483;BME280;18103;52.246;8.052;2023-03-31T03:28:09;98911.34;;;10.35;86.57
31483;BME280;18103;52.246;8.052;2023-03-31T03:30:34;98905.59;;;10.39;86.54
31483;BME280;18103;52.246;8.052;2023-03-31T03:33:00;98898.06;;;10.26;87.24
31483;BME280;18103;52.246;8.052;2023-03-31T03:35:30;98890.94;;;10.19;87.72
31483;BME280;18103;52.246;8.052;2023-03-31T03:37:55;98891.59;;;10.21;87.51
31483;BME280;18103;52.246;8.052;2023-03-31T03:40:24;98879.19;;;10.13;87.82
31483;BME280;18103;52.246;8.052;2023-03-31T03:42:49;98878.34;;;10.13;87.91
31483;BME280;18103;52.246;8.052;2023-03-31T03:45:17;98874.22;;;10.10;88.12
31483;BME280;18103;52.246;8.052;2023-03-31T03:47:42;98871.78;;;10.17;87.82
31483;BME280;18103;52.246;8.052;2023-03-31T03:50:09;98857.75;;;10.08;88.62
31483;BME280;18103;52.246;8.052;2023-03-31T03:52:34;98855.63;;;10.12;88.61
31483;BME280;18103;52.246;8.052;2023-03-31T03:55:00;98826.56;;;10.03;88.97
31483;BME280;18103;52.246;8.052;2023-03-31T03:57:26;98829.44;;;10.18;88.58
31483;BME280;18103;52.246;8.052;2023-03-31T03:59:56;98818.75;;;10.20;88.24
31483;BME280;18103;52.246;8.052;2023-03-31T04:02:21;98821.75;;;9.99;89.14
31483;BME280;18103;52.246;8.052;2023-03-31T04:04:51;98824.84;;;9.94;89.41
31483;BME280;18103;52.246;8.052;2023-03-31T04:07:17;98801.72;;;10.06;88.99
31483;BME280;18103;52.246;8.052;2023-03-31T04:09:44;98797.72;;;10.02;89.19
31483;BME280;18103;52.246;8.052;2023-03-31T04:12:12;98802.38;;;10.08;89.23
31483;BME280;18103;52.246;8.052;2023-03-31T04:14:37;98804.03;;;10.09;89.27
31483;BME280;18103;52.246;8.052;2023-03-31T04:17:03;98797.00;;;10.18;88.63
31483;BME280;18103;52.246;8.052;2023-03-31T04:19:30;98786.91;;;10.13;88.67
31483;BME280;18103;52.246;8.052;2023-03-31T04:21:56;98792.53;;;10.18;88.64
31483;BME280;18103;52.246;8.052;2023-03-31T04:24:31;98787.19;;;10.02;89.41
31483;BME280;18103;52.246;8.052;2023-03-31T04:27:03;98781.72;;;9.95;89.70
31483;BME280;18103;52.246;8.052;2023-03-31T04:29:34;98778.13;;;10.04;89.09
31483;BME280;18103;52.246;8.052;2023-03-31T04:32:02;98786.97;;;9.95;90.26
31483;BME280;18103;52.246;8.052;2023-03-31T04:34:27;98778.44;;;10.01;89.88
31483;BME280;18103;52.246;8.052;2023-03-31T04:37:04;98772.34;;;10.01;90.40
31483;BME280;18103;52.246;8.052;2023-03-31T04:39:31;98770.75;;;10.08;89.87
31483;BME280;18103;52.246;8.052;2023-03-31T04:41:58;98760.84;;;10.10;89.70
31483;BME280;18103;52.246;8.052;2023-03-31T04:44:23;98756.22;;;10.04;90.29
31483;BME280;18103;52.246;8.052;2023-03-31T04:46:49;98744.50;;;9.98;90.37
31483;BME280;18103;52.246;8.052;2023-03-31T04:49:14;98731.00;;;10.01;89.94
31483;BME280;18103;52.246;8.052;2023-03-31T04:51:40;98731.84;;;10.02;90.71
31483;BME280;18103;52.246;8.052;2023-03-31T04:54:06;98726.91;;;10.07;90.34
31483;BME280;18103;52.246;8.052;2023-03-31T04:56:33;98730.53;;;10.06;90.18
31483;BME280;18103;52.246;8.052;2023-03-31T04:59:01;98716.56;;;10.14;90.02
31483;BME280;18103;52.246;8.052;2023-03-31T05:01:31;98721.47;;;10.08;89.92
31483;BME280;18103;52.246;8.052;2023-03-31T05:03:57;98733.06;;;10.16;89.52
31483;BME280;18103;52.246;8.052;2023-03-31T05:06:23;98726.41;;;10.03;90.42
31483;BME280;18103;52.246;8.052;2023-03-31T05:08:48;98720.13;;;10.04;90.32
31483;BME280;18103;52.246;8.052;2023-03-31T05:11:16;98714.69;;;9.98;91.02
31483;BME280;18103;52.246;8.052;2023-03-31T05:13:41;98707.25;;;10.01;90.71
31483;BME280;18103;52.246;8.052;2023-03-31T05:16:08;98704.47;;;10.03;90.57
31483;BME280;18103;52.246;8.052;2023-03-31T05:18:33;98704.31;;;10.04;90.58
31483;BME280;18103;52.246;8.052;2023-03-31T05:21:17;98694.97;;;10.18;90.40
31483;BME280;18103;52.246;8.052;2023-03-31T05:23:43;98684.53;;;10.00;90.74
31483;BME280;18103;52.246;8.052;2023-03-31T05:26:11;98679.13;;;10.10;90.37
31483;BME280;18103;52.246;8.052;2023-03-31T05:28:40;98686.22;;;10.09;90.23
31483;BME280;18103;52.246;8.052;2023-03-31T05:31:09;98682.97;;;10.16;89.61
31483;BME280;18103;52.246;8.052;2023-03-31T05:33:35;98684.56;;;10.08;90.28
31483;BME280;18103;52.246;8.052;2023-03-31T05:36:10;98675.31;;;10.04;90.65
31483;BME280;18103;52.246;8.052;2023-03-31T05:38:37;98674.41;;;10.22;89.81
31483;BME280;18103;52.246;8.052;2023-03-31T05:41:07;98672.06;;;10.10;90.10
31483;BME280;18103;52.246;8.052;2023-03-31T05:43:37;98665.47;;;10.15;90.24
31483;BME280;18103;52.246;8.052;2023-03-31T05:46:04;98668.56;;;10.10;90.52
31483;BME280;18103;52.246;8.052;2023-03-31T05:48:30;98659.88;;;10.18;90.28
31483;BME280;18103;52.246;8.052;2023-03-31T05:50:59;98651.47;;;10.06;90.81
31483;BME280;18103;52.246;8.052;2023-03-31T05:53:28;98666.78;;;10.10;90.53
31483;BME280;18103;52.246;8.052;2023-03-31T05:56:03;98648.03;;;10.22;90.29
31483;BME280;18103;52.246;8.052;2023-03-31T05:58:30;98647.53;;;10.18;90.28
31483;BME280;18103;52.246;8.052;2023-03-31T06:03:31;98638.13;;;10.07;90.60
31483;BME280;18103;52.246;8.052;2023-03-31T06:05:59;98642.22;;;10.10;90.49
31483;BME280;18103;52.246;8.052;2023-03-31T06:08:26;98640.06;;;10.05;90.46
31483;BME280;18103;52.246;8.052;2023-03-31T06:10:52;98628.56;;;10.15;90.08
31483;BME280;18103;52.246;8.052;2023-03-31T06:13:19;98612.72;;;10.06;90.59
31483;BME280;18103;52.246;8.052;2023-03-31T06:15:55;98603.34;;;10.12;90.22
31483;BME280;18103;52.246;8.052;2023-03-31T06:18:21;98599.38;;;10.08;90.53
31483;BME280;18103;52.246;8.052;2023-03-31T06:20:46;98602.53;;;10.20;90.11
31483;BME280;18103;52.246;8.052;2023-03-31T06:23:12;98594.78;;;10.18;90.08
31483;BME280;18103;52.246;8.052;2023-03-31T06:25:40;98587.53;;;10.12;90.37
31483;BME280;18103;52.246;8.052;2023-03-31T06:28:05;98582.31;;;10.28;89.57
31483;BME280;18103;52.246;8.052;2023-03-31T06:30:31;98584.25;;;10.26;89.73
31483;BME280;18103;52.246;8.052;2023-03-31T06:32:57;98580.31;;;10.31;89.33
31483;BME280;18103;52.246;8.052;2023-03-31T06:35:22;98570.75;;;10.30;89.57
31483;BME280;18103;52.246;8.052;2023-03-31T06:37:48;98565.97;;;10.25;89.64
31483;BME280;18103;52.246;8.052;2023-03-31T06:40:13;98557.53;;;10.05;90.47
31483;BME280;18103;52.246;8.052;2023-03-31T06:42:39;98554.56;;;10.08;90.12
31483;BME280;18103;52.246;8.052;2023-03-31T06:45:07;98551.78;;;10.18;89.73
31483;BME280;18103;52.246;8.052;2023-03-31T06:47:32;98547.16;;;10.28;89.43
31483;BME280;18103;52.246;8.052;2023-03-31T06:49:58;98545.53;;;10.19;89.39
31483;BME280;18103;52.246;8.052;2023-03-31T06:52:26;98535.47;;;10.22;89.34
31483;BME280;18103;52.246;8.052;2023-03-31T06:54:51;98537.13;;;10.23;89.33
31483;BME280;18103;52.246;8.052;2023-03-31T06:57:19;98535.81;;;10.19;90.14
31483;BME280;18103;52.246;8.052;2023-03-31T06:59:47;98541.22;;;10.09;89.83
31483;BME280;18103;52.246;8.052;2023-03-31T07:02:12;98524.44;;;10.19;89.65
31483;BME280;18103;52.246;8.052;2023-03-31T07:04:40;98524.13;;;10.30;89.27
31483;BME280;18103;52.246;8.052;2023-03-31T07:07:08;98511.25;;;10.19;89.90
31483;BME280;18103;52.246;8.052;2023-03-31T07:09:36;98516.72;;;10.25;89.32
31483;BME280;18103;52.246;8.052;2023-03-31T07:12:04;98521.63;;;10.20;89.63
31483;BME280;18103;52.246;8.052;2023-03-31T07:14:32;98512.75;;;10.21;89.79
31483;BME280;18103;52.246;8.052;2023-03-31T07:16:58;98520.31;;;10.24;89.46
31483;BME280;18103;52.246;8.052;2023-03-31T07:19:24;98501.56;;;10.36;89.27
31483;BME280;18103;52.246;8.052;2023-03-31T07:21:49;98494.13;;;10.39;89.16
31483;BME280;18103;52.246;8.052;2023-03-31T07:24:15;98487.22;;;10.47;89.04
31483;BME280;18103;52.246;8.052;2023-03-31T07:26:41;98488.56;;;10.42;89.00
31483;BME280;18103;52.246;8.052;2023-03-31T07:29:11;98484.94;;;10.35;88.33
31483;BME280;18103;52.246;8.052;2023-03-31T07:31:37;98486.88;;;10.33;88.55
31483;BME280;18103;52.246;8.052;2023-03-31T07:34:04;98486.88;;;10.33;88.78
31483;BME280;18103;52.246;8.052;2023-03-31T07:36:30;98476.00;;;10.36;88.89
31483;BME280;18103;52.246;8.052;2023-03-31T07:38:57;98475.53;;;10.41;88.09
31483;BME280;18103;52.246;8.052;2023-03-31T07:41:24;98473.72;;;10.41;88.49
31483;BME280;18103;52.246;8.052;2023-03-31T07:43:54;98467.75;;;10.39;88.45
31483;BME280;18103;52.246;8.052;2023-03-31T07:46:24;98467.28;;;10.44;88.33
31483;BME280;18103;52.246;8.052;2023-03-31T07:48:51;98463.31;;;10.48;87.90
31483;BME280;18103;52.246;8.052;2023-03-31T07:51:18;98463.16;;;10.50;87.41
31483;BME280;18103;52.246;8.052;2023-03-31T07:53:45;98461.31;;;10.50;87.45
31483;BME280;18103;52.246;8.052;2023-03-31T07:56:13;98459.38;;;10.44;87.48
31483;BME280;18103;52.246;8.052;2023-03-31T07:58:41;98454.56;;;10.48;87.17
31483;BME280;18103;52.246;8.052;2023-03-31T08:01:07;98454.06;;;10.60;87.13
31483;BME280;18103;52.246;8.052;2023-03-31T08:03:32;98452.94;;;10.55;87.08
31483;BME280;18103;52.246;8.052;2023-03-31T08:06:00;98446.66;;;10.56;86.93
31483;BME280;18103;52.246;8.052;2023-03-31T08:08:26;98447.97;;;10.60;86.56
31483;BME280;18103;52.246;8.052;2023-03-31T08:10:51;98444.00;;;10.64;86.59
31483;BME280;18103;52.246;8.052;2023-03-31T08:13:17;98448.13;;;10.58;86.14
31483;BME280;18103;52.246;8.052;2023-03-31T08:15:45;98434.59;;;10.53;85.75
31483;BME280;18103;52.246;8.052;2023-03-31T08:18:10;98434.75;;;10.60;85.95
31483;BME280;18103;52.246;8.052;2023-03-31T08:20:38;98435.09;;;10.57;85.78
31483;BME280;18103;52.246;8.052;2023-03-31T08:23:05;98443.03;;;10.57;86.02
31483;BME280;18103;52.246;8.052;2023-03-31T08:25:35;98433.44;;;10.56;85.85
31483;BME280;18103;52.246;8.052;2023-03-31T08:28:01;98451.09;;;10.55;86.34
31483;BME280;18103;52.246;8.052;2023-03-31T08:30:26;98430.19;;;10.37;87.73
31483;BME280;18103;52.246;8.052;2023-03-31T08:32:54;98436.28;;;10.38;88.60
31483;BME280;18103;52.246;8.052;2023-03-31T08:35:23;98435.09;;;10.32;89.10
31483;BME280;18103;52.246;8.052;2023-03-31T08:37:51;98429.19;;;10.30;89.33
31483;BME280;18103;52.246;8.052;2023-03-31T08:40:23;98422.75;;;10.24;90.07
31483;BME280;18103;52.246;8.052;2023-03-31T08:42:52;98424.09;;;10.37;89.83
31483;BME280;18103;52.246;8.052;2023-03-31T08:45:53;98428.38;;;10.38;89.35
31483;BME280;18103;52.246;8.052;2023-03-31T08:51:04;98414.88;;;10.41;89.51
31483;BME280;18103;52.246;8.052;2023-03-31T08:53:58;98420.94;;;10.33;89.55
31483;BME280;18103;52.246;8.052;2023-03-31T08:56:29;98415.84;;;10.40;89.63
31483;BME280;18103;52.246;8.052;2023-03-31T08:59:06;98417.34;;;10.42;89.62
31483;BME280;18103;52.246;8.052;2023-03-31T09:01:48;98417.50;;;10.33;89.96
31483;BME280;18103;52.246;8.052;2023-03-31T09:07:33;98414.81;;;10.57;89.76
31483;BME280;18103;52.246;8.052;2023-03-31T09:15:31;98420.09;;;10.57;89.70
31483;BME280;18103;52.246;8.052;2023-03-31T09:18:12;98416.00;;;10.47;89.38
31483;BME280;18103;52.246;8.052;2023-03-31T09:20:43;98415.84;;;10.48;89.66
31483;BME280;18103;52.246;8.052;2023-03-31T09:23:31;98412.34;;;10.64;89.21
31483;BME280;18103;52.246;8.052;2023-03-31T09:26:02;98410.50;;;10.65;89.95
31483;BME280;18103;52.246;8.052;2023-03-31T09:28:38;98395.22;;;10.52;89.75
31483;BME280;18103;52.246;8.052;2023-03-31T09:31:15;98399.13;;;10.72;89.51
31483;BME280;18103;52.246;8.052;2023-03-31T09:33:45;98396.03;;;10.60;89.70
31483;BME280;18103;52.246;8.052;2023-03-31T09:36:18;98391.22;;;10.64;89.49
31483;BME280;18103;52.246;8.052;2023-03-31T09:38:46;98391.72;;;10.68;89.16
31483;BME280;18103;52.246;8.052;2023-03-31T09:41:14;98389.28;;;10.58;89.63
31483;BME280;18103;52.246;8.052;2023-03-31T09:43:43;98389.63;;;10.47;89.99
31483;BME280;18103;52.246;8.052;2023-03-31T09:46:33;98395.22;;;10.43;90.29
31483;BME280;18103;52.246;8.052;2023-03-31T09:49:05;98401.97;;;10.30;91.34
31483;BME280;18103;52.246;8.052;2023-03-31T09:51:36;98396.06;;;10.44;90.99
31483;BME280;18103;52.246;8.052;2023-03-31T09:54:09;98387.16;;;10.45;91.02
31483;BME280;18103;52.246;8.052;2023-03-31T09:59:34;98383.88;;;10.43;90.64
31483;BME280;18103;52.246;8.052;2023-03-31T10:02:13;98401.66;;;10.33;90.42
31483;BME280;18103;52.246;8.052;2023-03-31T10:04:47;98382.38;;;10.24;91.27
31483;BME280;18103;52.246;8.052;2023-03-31T10:07:19;98364.06;;;10.31;89.95
31483;BME280;18103;52.246;8.052;2023-03-31T10:09:48;98374.78;;;10.29;90.17
31483;BME280;18103;52.246;8.052;2023-03-31T10:12:19;98379.56;;;10.34;90.70
31483;BME280;18103;52.246;8.052;2023-03-31T10:14:49;98383.50;;;10.30;90.83
31483;BME280;18103;52.246;8.052;2023-03-31T10:17:18;98381.88;;;10.28;90.78
31483;BME280;18103;52.246;8.052;2023-03-31T10:19:51;98365.41;;;10.35;90.36
31483;BME280;18103;52.246;8.052;2023-03-31T10:24:46;98365.06;;;10.38;90.43
31483;BME280;18103;52.246;8.052;2023-03-31T10:27:30;98368.91;;;10.35;90.24
31483;BME280;18103;52.246;8.052;2023-03-31T10:30:00;98371.00;;;10.48;90.63
31483;BME280;18103;52.246;8.052;2023-03-31T10:32:31;98364.25;;;10.46;90.90
31483;BME280;18103;52.246;8.052;2023-03-31T10:35:05;98367.22;;;10.42;90.57
31483;BME280;18103;52.246;8.052;2023-03-31T10:37:37;98368.06;;;10.35;90.88
31483;BME280;18103;52.246;8.052;2023-03-31T10:40:18;98367.25;;;10.34;90.43
31483;BME280;18103;52.246;8.052;2023-03-31T10:42:49;98364.91;;;10.31;90.85
31483;BME280;18103;52.246;8.052;2023-03-31T10:47:52;98351.06;;;10.29;91.41
31483;BME280;18103;52.246;8.052;2023-03-31T10:50:27;98350.06;;;10.30;91.09
31483;BME280;18103;52.246;8.052;2023-03-31T10:53:32;98343.34;;;10.36;90.33
31483;BME280;18103;52.246;8.052;2023-03-31T10:58:41;98351.41;;;10.42;90.91
31483;BME280;18103;52.246;8.052;2023-03-31T11:12:57;98335.56;;;10.42;90.51
31483;BME280;18103;52.246;8.052;2023-03-31T11:15:29;98334.88;;;10.49;90.47
31483;BME280;18103;52.246;8.052;2023-03-31T11:20:53;98327.75;;;10.57;90.68
31483;BME280;18103;52.246;8.052;2023-03-31T11:25:53;98322.97;;;10.61;89.94
31483;BME280;18103;52.246;8.052;2023-03-31T11:34:23;98321.22;;;10.85;90.28
31483;BME280;18103;52.246;8.052;2023-03-31T11:42:29;98325.16;;;10.89;90.11
31483;BME280;18103;52.246;8.052;2023-03-31T11:45:10;98314.59;;;10.89;90.59
31483;BME280;18103;52.246;8.052;2023-03-31T11:47:39;98317.22;;;10.97;89.66
31483;BME280;18103;52.246;8.052;2023-03-31T11:50:15;98317.53;;;10.94;90.41
31483;BME280;18103;52.246;8.052;2023-03-31T11:52:52;98304.13;;;11.04;90.48
31483;BME280;18103;52.246;8.052;2023-03-31T11:55:22;98301.31;;;11.05;90.09
31483;BME280;18103;52.246;8.052;2023-03-31T12:00:25;98294.53;;;11.11;90.17
31483;BME280;18103;52.246;8.052;2023-03-31T12:05:57;98293.19;;;11.15;89.94
31483;BME280;18103;52.246;8.052;2023-03-31T12:08:34;98291.25;;;11.01;90.44
31483;BME280;18103;52.246;8.052;2023-03-31T12:11:11;98280.47;;;11.10;90.13
31483;BME280;18103;52.246;8.052;2023-03-31T12:13:52;98282.63;;;11.15;90.46
31483;BME280;18103;52.246;8.052;2023-03-31T12:16:36;98277.09;;;11.25;90.31
31483;BME280;18103;52.246;8.052;2023-03-31T12:19:20;98278.09;;;11.24;90.29
31483;BME280;18103;52.246;8.052;2023-03-31T12:21:55;98284.81;;;11.50;90.27
31483;BME280;18103;52.246;8.052;2023-03-31T12:24:33;98278.19;;;11.54;90.01
31483;BME280;18103;52.246;8.052;2023-03-31T12:27:06;98275.03;;;11.58;90.10
31483;BME280;18103;52.246;8.052;2023-03-31T12:29:42;98274.34;;;11.79;89.52
31483;BME280;18103;52.246;8.052;2023-03-31T12:32:31;98265.13;;;11.75;89.87
31483;BME280;18103;52.246;8.052;2023-03-31T12:48:15;98268.56;;;11.99;88.86
31483;BME280;18103;52.246;8.052;2023-03-31T12:53:42;98250.31;;;12.04;87.67
31483;BME280;18103;52.246;8.052;2023-03-31T12:56:11;98250.94;;;12.21;87.76
31483;BME280;18103;52.246;8.052;2023-03-31T12:58:41;98248.13;;;12.23;88.37
31483;BME280;18103;52.246;8.052;2023-03-31T13:01:14;98248.72;;;12.55;87.61
31483;BME280;18103;52.246;8.052;2023-03-31T13:09:02;98244.38;;;12.32;86.48
31483;BME280;18103;52.246;8.052;2023-03-31T13:16:28;98246.13;;;11.95;86.10
31483;BME280;18103;52.246;8.052;2023-03-31T13:18:56;98251.22;;;11.96;85.68
31483;BME280;18103;52.246;8.052;2023-03-31T13:21:22;98257.28;;;11.82;86.38
31483;BME280;18103;52.246;8.052;2023-03-31T13:23:48;98246.13;;;11.95;86.73
31483;BME280;18103;52.246;8.052;2023-03-31T13:29:40;98244.28;;;11.95;87.29
31483;BME280;18103;52.246;8.052;2023-03-31T13:32:17;98238.50;;;11.92;87.53
31483;BME280;18103;52.246;8.052;2023-03-31T13:37:38;98249.00;;;11.85;88.15
31483;BME280;18103;52.246;8.052;2023-03-31T13:50:49;98237.09;;;12.04;87.57
31483;BME280;18103;52.246;8.052;2023-03-31T13:54:25;98240.00;;;12.09;87.49
31483;BME280;18103;52.246;8.052;2023-03-31T14:00:19;98235.16;;;12.28;87.21
31483;BME280;18103;52.246;8.052;2023-03-31T14:11:27;98239.09;;;12.32;86.37
31483;BME280;18103;52.246;8.052;2023-03-31T14:16:35;98237.72;;;12.36;84.30
31483;BME280;18103;52.246;8.052;2023-03-31T14:22:01;98233.97;;;12.15;84.35
31483;BME280;18103;52.246;8.052;2023-03-31T14:33:36;98218.13;;;12.15;84.17
31483;BME280;18103;52.246;8.052;2023-03-31T14:36:09;98226.88;;;12.16;83.63
31483;BME280;18103;52.246;8.052;2023-03-31T14:38:42;98212.72;;;12.24;83.18
31483;BME280;18103;52.246;8.052;2023-03-31T14:41:17;98210.16;;;12.30;84.07
31483;BME280;18103;52.246;8.052;2023-03-31T14:43:55;98204.69;;;12.47;83.67
31483;BME280;18103;52.246;8.052;2023-03-31T14:46:22;98206.13;;;12.49;84.51
31483;BME280;18103;52.246;8.052;2023-03-31T14:48:49;98199.13;;;12.42;83.19
31483;BME280;18103;52.246;8.052;2023-03-31T14:51:33;98195.88;;;12.61;83.57
31483;BME280;18103;52.246;8.052;2023-03-31T14:54:02;98193.91;;;12.48;82.31
31483;BME280;18103;52.246;8.052;2023-03-31T14:56:37;98201.31;;;12.38;82.87
31483;BME280;18103;52.246;8.052;2023-03-31T14:59:06;98197.13;;;12.44;81.10
31483;BME280;18103;52.246;8.052;2023-03-31T15:01:34;98193.25;;;12.46;81.88
31483;BME280;18103;52.246;8.052;2023-03-31T15:04:09;98192.25;;;12.47;82.14
31483;BME280;18103;52.246;8.052;2023-03-31T15:06:44;98188.94;;;12.60;82.00
31483;BME280;18103;52.246;8.052;2023-03-31T15:09:17;98181.53;;;12.71;81.85
31483;BME280;18103;52.246;8.052;2023-03-31T15:11:47;98189.59;;;12.47;82.08
31483;BME280;18103;52.246;8.052;2023-03-31T15:14:17;98188.22;;;12.52;81.68
31483;BME280;18103;52.246;8.052;2023-03-31T15:16:45;98195.75;;;12.48;81.54
31483;BME280;18103;52.246;8.052;2023-03-31T15:19:21;98183.03;;;12.58;81.41
31483;BME280;18103;52.246;8.052;2023-03-31T15:24:20;98172.75;;;12.70;81.38
31483;BME280;18103;52.246;8.052;2023-03-31T15:29:37;98173.69;;;12.62;81.08
31483;BME280;18103;52.246;8.052;2023-03-31T15:32:23;98165.38;;;12.65;80.15
31483;BME280;18103;52.246;8.052;2023-03-31T15:34:56;98160.88;;;12.66;80.92
31483;BME280;18103;52.246;8.052;2023-03-31T15:37:25;98162.66;;;12.59;80.28
31483;BME280;18103;52.246;8.052;2023-03-31T15:40:00;98164.69;;;12.57;79.49
31483;BME280;18103;52.246;8.052;2023-03-31T15:42:31;98151.06;;;12.60;80.15
31483;BME280;18103;52.246;8.052;2023-03-31T15:45:35;98154.38;;;12.62;80.00
31483;BME280;18103;52.246;8.052;2023-03-31T15:48:02;98157.16;;;12.60;79.18
31483;BME280;18103;52.246;8.052;2023-03-31T15:50:28;98146.41;;;12.62;78.93
31483;BME280;18103;52.246;8.052;2023-03-31T15:52:55;98142.31;;;12.59;80.13
31483;BME280;18103;52.246;8.052;2023-03-31T15:57:59;98136.16;;;12.52;78.98
31483;BME280;18103;52.246;8.052;2023-03-31T16:05:55;98144.19;;;12.44;78.66
31483;BME280;18103;52.246;8.052;2023-03-31T16:14:21;98156.06;;;12.33;80.25
31483;BME280;18103;52.246;8.052;2023-03-31T16:16:53;98151.09;;;12.23;80.43
31483;BME280;18103;52.246;8.052;2023-03-31T16:19:24;98166.69;;;12.18;80.73
31483;BME280;18103;52.246;8.052;2023-03-31T16:21:52;98158.78;;;12.03;82.01
31483;BME280;18103;52.246;8.052;2023-03-31T16:24:20;98161.69;;;12.08;82.66
31483;BME280;18103;52.246;8.052;2023-03-31T16:26:57;98159.59;;;12.04;83.23
31483;BME280;18103;52.246;8.052;2023-03-31T16:29:23;98155.19;;;12.11;83.02
31483;BME280;18103;52.246;8.052;2023-03-31T16:31:48;98158.31;;;12.00;83.21
31483;BME280;18103;52.246;8.052;2023-03-31T16:34:14;98152.28;;;11.91;82.33
31483;BME280;18103;52.246;8.052;2023-03-31T16:36:42;98146.94;;;11.99;82.64
31483;BME280;18103;52.246;8.052;2023-03-31T16:39:09;98144.28;;;11.99;82.25
31483;BME280;18103;52.246;8.052;2023-03-31T16:41:36;98135.97;;;12.02;82.26
31483;BME280;18103;52.246;8.052;2023-03-31T16:44:04;98142.47;;;12.00;82.45